sensor_id;sensor_type;location;lat;lon;timestamp;temperature;humidity
14735;DHT22;7458;49.002;8.472;2023-06-22T00:02:18;23.70;99.90
14735;DHT22;7458;49.002;8.472;2023-06-22T00:04:44;23.70;99.90
14735;DHT22;7458;49.002;8.472;2023-06-22T00:07:10;23.80;99.90
14735;DHT22;7458;49.002;8.472;2023-06-22T00:09:36;23.80;99.90
14735;DHT22;7458;49.002;8.472;2023-06-22T00:12:02;23.70;99.90
14735;DHT22;7458;49.002;8.472;2023-06-22T00:14:28;23.60;99.90
14735;DHT22;7458;49.002;8.472;2023-06-22T00:16:54;23.70;99.90
14735;DHT22;7458;49.002;8.472;2023-06-22T00:19:24;23.60;99.90
14735;DHT22;7458;49.002;8.472;2023-06-22T00:21:50;23.70;99.90
14735;DHT22;7458;49.002;8.472;2023-06-22T00:24:20;23.70;99.90
14735;DHT22;7458;49.002;8.472;2023-06-22T00:26:47;23.70;99.90
14735;DHT22;7458;49.002;8.472;2023-06-22T00:29:14;23.70;99.90
14735;DHT22;7458;49.002;8.472;2023-06-22T00:31:40;23.60;99.90
14735;DHT22;7458;49.002;8.472;2023-06-22T00:34:05;23.60;99.90
14735;DHT22;7458;49.002;8.472;2023-06-22T00:36:34;23.70;99.90
14735;DHT22;7458;49.002;8.472;2023-06-22T00:39:00;23.60;99.90
14735;DHT22;7458;49.002;8.472;2023-06-22T00:41:26;23.30;99.90
14735;DHT22;7458;49.002;8.472;2023-06-22T00:43:54;23.10;99.90
14735;DHT22;7458;49.002;8.472;2023-06-22T00:46:21;22.10;99.90
14735;DHT22;7458;49.002;8.472;2023-06-22T00:48:48;21.80;99.90
14735;DHT22;7458;49.002;8.472;2023-06-22T00:51:15;22.10;99.90
14735;DHT22;7458;49.002;8.472;2023-06-22T00:53:41;21.70;99.90
14735;DHT22;7458;49.002;8.472;2023-06-22T00:56:08;21.60;99.90
14735;DHT22;7458;49.002;8.472;2023-06-22T00:58:38;21.40;99.90
14735;DHT22;7458;49.002;8.472;2023-06-22T01:01:07;21.00;99.90
14735;DHT22;7458;49.002;8.472;2023-06-22T01:03:33;21.30;99.90
14735;DHT22;7458;49.002;8.472;2023-06-22T01:06:06;21.10;99.90
14735;DHT22;7458;49.002;8.472;2023-06-22T01:09:00;21.30;99.90
14735;DHT22;7458;49.002;8.472;2023-06-22T01:11:37;21.20;99.90
14735;DHT22;7458;49.002;8.472;2023-06-22T01:14:14;21.00;99.90
14735;DHT22;7458;49.002;8.472;2023-06-22T01:16:45;20.90;99.90
14735;DHT22;7458;49.002;8.472;2023-06-22T01:19:45;21.00;99.90
14735;DHT22;7458;49.002;8.472;2023-06-22T01:22:16;20.30;99.90
14735;DHT22;7458;49.002;8.472;2023-06-22T01:25:21;21.10;99.90
14735;DHT22;7458;49.002;8.472;2023-06-22T01:28:04;20.80;99.90
14735;DHT22;7458;49.002;8.472;2023-06-22T01:30:45;20.30;99.90
14735;DHT22;7458;49.002;8.472;2023-06-22T01:33:13;20.60;99.90
14735;DHT22;7458;49.002;8.472;2023-06-22T01:35:41;20.60;99.90
14735;DHT22;7458;49.002;8.472;2023-06-22T01:38:08;20.50;99.90
14735;DHT22;7458;49.002;8.472;2023-06-22T01:40:36;20.50;99.90
14735;DHT22;7458;49.002;8.472;2023-06-22T01:43:03;20.60;99.90
14735;DHT22;7458;49.002;8.472;2023-06-22T01:45:30;20.20;99.90
14735;DHT22;7458;49.002;8.472;2023-06-22T01:47:56;20.20;99.90
14735;DHT22;7458;49.002;8.472;2023-06-22T01:50:22;20.50;99.90
14735;DHT22;7458;49.002;8.472;2023-06-22T01:52:50;20.50;99.90
14735;DHT22;7458;49.002;8.472;2023-06-22T01:55:15;20.50;99.90
14735;DHT22;7458;49.002;8.472;2023-06-22T01:57:41;20.60;99.90
14735;DHT22;7458;49.002;8.472;2023-06-22T02:00:11;20.50;99.90
14735;DHT22;7458;49.002;8.472;2023-06-22T02:02:48;20.50;99.90
14735;DHT22;7458;49.002;8.472;2023-06-22T02:05:19;20.40;99.90
14735;DHT22;7458;49.002;8.472;2023-06-22T02:07:54;20.30;99.90
14735;DHT22;7458;49.002;8.472;2023-06-22T02:10:26;20.30;99.90
14735;DHT22;7458;49.002;8.472;2023-06-22T02:12:54;20.30;99.90
14735;DHT22;7458;49.002;8.472;2023-06-22T02:15:23;20.30;99.90
14735;DHT22;7458;49.002;8.472;2023-06-22T02:17:49;20.30;99.90
14735;DHT22;7458;49.002;8.472;2023-06-22T02:20:15;20.20;99.90
14735;DHT22;7458;49.002;8.472;2023-06-22T02:22:41;20.20;99.90
14735;DHT22;7458;49.002;8.472;2023-06-22T02:25:07;20.10;99.90
14735;DHT22;7458;49.002;8.472;2023-06-22T02:27:33;20.00;99.90
14735;DHT22;7458;49.002;8.472;2023-06-22T02:30:00;20.00;99.90
14735;DHT22;7458;49.002;8.472;2023-06-22T02:32:26;20.10;99.90
14735;DHT22;7458;49.002;8.472;2023-06-22T02:34:52;20.10;99.90
14735;DHT22;7458;49.002;8.472;2023-06-22T02:37:18;20.10;99.90
14735;DHT22;7458;49.002;8.472;2023-06-22T02:39:44;19.80;99.90
14735;DHT22;7458;49.002;8.472;2023-06-22T02:42:10;20.00;99.90
14735;DHT22;7458;49.002;8.472;2023-06-22T02:44:36;20.00;99.90
14735;DHT22;7458;49.002;8.472;2023-06-22T02:47:02;20.00;99.90
14735;DHT22;7458;49.002;8.472;2023-06-22T02:49:28;20.00;99.90
14735;DHT22;7458;49.002;8.472;2023-06-22T02:51:54;20.00;99.90
14735;DHT22;7458;49.002;8.472;2023-06-22T02:54:20;20.00;99.90
14735;DHT22;7458;49.002;8.472;2023-06-22T02:56:46;19.80;99.90
14735;DHT22;7458;49.002;8.472;2023-06-22T02:59:13;19.90;99.90
14735;DHT22;7458;49.002;8.472;2023-06-22T03:01:39;19.90;99.90
14735;DHT22;7458;49.002;8.472;2023-06-22T03:04:08;20.10;99.90
14735;DHT22;7458;49.002;8.472;2023-06-22T03:06:35;19.80;99.90
14735;DHT22;7458;49.002;8.472;2023-06-22T03:09:05;19.80;99.90
14735;DHT22;7458;49.002;8.472;2023-06-22T03:11:31;19.70;99.90
14735;DHT22;7458;49.002;8.472;2023-06-22T03:13:59;19.70;99.90
14735;DHT22;7458;49.002;8.472;2023-06-22T03:16:26;19.70;99.90
14735;DHT22;7458;49.002;8.472;2023-06-22T03:18:52;19.80;99.90
14735;DHT22;7458;49.002;8.472;2023-06-22T03:21:22;19.80;99.90
14735;DHT22;7458;49.002;8.472;2023-06-22T03:23:49;19.80;99.90
14735;DHT22;7458;49.002;8.472;2023-06-22T03:26:17;19.50;99.90
14735;DHT22;7458;49.002;8.472;2023-06-22T03:28:43;19.40;99.90
14735;DHT22;7458;49.002;8.472;2023-06-22T03:31:09;19.70;99.90
14735;DHT22;7458;49.002;8.472;2023-06-22T03:33:35;19.50;99.90
14735;DHT22;7458;49.002;8.472;2023-06-22T03:36:00;19.70;99.90
14735;DHT22;7458;49.002;8.472;2023-06-22T03:38:26;19.70;99.90
14735;DHT22;7458;49.002;8.472;2023-06-22T03:40:52;19.80;99.90
14735;DHT22;7458;49.002;8.472;2023-06-22T03:43:18;19.80;99.90
14735;DHT22;7458;49.002;8.472;2023-06-22T03:45:43;19.80;99.90
14735;DHT22;7458;49.002;8.472;2023-06-22T03:48:11;19.70;99.90
14735;DHT22;7458;49.002;8.472;2023-06-22T03:50:37;19.90;99.90
14735;DHT22;7458;49.002;8.472;2023-06-22T03:53:03;19.80;99.90
14735;DHT22;7458;49.002;8.472;2023-06-22T03:55:29;20.00;99.90
14735;DHT22;7458;49.002;8.472;2023-06-22T03:57:55;20.00;99.90
14735;DHT22;7458;49.002;8.472;2023-06-22T04:00:23;20.10;99.90
14735;DHT22;7458;49.002;8.472;2023-06-22T04:02:49;19.70;99.90
14735;DHT22;7458;49.002;8.472;2023-06-22T04:05:15;19.80;99.90
14735;DHT22;7458;49.002;8.472;2023-06-22T04:07:43;19.80;99.90
14735;DHT22;7458;49.002;8.472;2023-06-22T04:10:09;19.80;99.90
14735;DHT22;7458;49.002;8.472;2023-06-22T04:12:35;19.90;99.90
14735;DHT22;7458;49.002;8.472;2023-06-22T04:15:01;20.10;99.90
14735;DHT22;7458;49.002;8.472;2023-06-22T04:17:27;20.10;99.90
14735;DHT22;7458;49.002;8.472;2023-06-22T04:19:53;20.10;99.90
14735;DHT22;7458;49.002;8.472;2023-06-22T04:22:19;20.10;99.90
14735;DHT22;7458;49.002;8.472;2023-06-22T04:24:44;20.30;99.90
14735;DHT22;7458;49.002;8.472;2023-06-22T04:27:10;20.30;99.90
14735;DHT22;7458;49.002;8.472;2023-06-22T04:29:37;20.40;99.90
14735;DHT22;7458;49.002;8.472;2023-06-22T04:32:04;20.50;99.90
14735;DHT22;7458;49.002;8.472;2023-06-22T04:34:30;20.20;99.90
14735;DHT22;7458;49.002;8.472;2023-06-22T04:36:56;20.70;99.90
14735;DHT22;7458;49.002;8.472;2023-06-22T04:39:23;20.60;99.90
14735;DHT22;7458;49.002;8.472;2023-06-22T04:41:49;20.60;99.90
14735;DHT22;7458;49.002;8.472;2023-06-22T04:44:17;20.70;99.90
14735;DHT22;7458;49.002;8.472;2023-06-22T04:46:52;20.80;99.90
14735;DHT22;7458;49.002;8.472;2023-06-22T04:49:25;20.60;99.90
14735;DHT22;7458;49.002;8.472;2023-06-22T04:51:59;20.80;99.90
14735;DHT22;7458;49.002;8.472;2023-06-22T04:54:26;20.80;99.90
14735;DHT22;7458;49.002;8.472;2023-06-22T04:56:52;20.90;99.90
14735;DHT22;7458;49.002;8.472;2023-06-22T04:59:24;21.00;99.90
14735;DHT22;7458;49.002;8.472;2023-06-22T05:02:00;21.00;99.90
14735;DHT22;7458;49.002;8.472;2023-06-22T05:04:28;21.10;99.90
14735;DHT22;7458;49.002;8.472;2023-06-22T05:06:59;20.90;99.90
14735;DHT22;7458;49.002;8.472;2023-06-22T05:09:25;21.20;99.90
14735;DHT22;7458;49.002;8.472;2023-06-22T05:11:52;21.20;99.90
14735;DHT22;7458;49.002;8.472;2023-06-22T05:14:18;21.20;99.90
14735;DHT22;7458;49.002;8.472;2023-06-22T05:16:44;21.30;99.90
14735;DHT22;7458;49.002;8.472;2023-06-22T05:19:11;22.00;99.90
14735;DHT22;7458;49.002;8.472;2023-06-22T05:21:38;21.30;99.90
14735;DHT22;7458;49.002;8.472;2023-06-22T05:24:04;21.30;99.90
14735;DHT22;7458;49.002;8.472;2023-06-22T05:26:32;21.40;99.90
14735;DHT22;7458;49.002;8.472;2023-06-22T05:29:00;21.50;99.90
14735;DHT22;7458;49.002;8.472;2023-06-22T05:31:27;21.50;99.90
14735;DHT22;7458;49.002;8.472;2023-06-22T05:33:54;21.50;99.90
14735;DHT22;7458;49.002;8.472;2023-06-22T05:36:21;21.50;99.90
14735;DHT22;7458;49.002;8.472;2023-06-22T05:38:50;21.60;99.90
14735;DHT22;7458;49.002;8.472;2023-06-22T05:41:17;21.50;99.90
14735;DHT22;7458;49.002;8.472;2023-06-22T05:43:43;21.50;99.90
14735;DHT22;7458;49.002;8.472;2023-06-22T05:46:09;21.70;99.90
14735;DHT22;7458;49.002;8.472;2023-06-22T05:48:34;22.40;99.90
14735;DHT22;7458;49.002;8.472;2023-06-22T05:51:00;21.80;99.90
14735;DHT22;7458;49.002;8.472;2023-06-22T05:53:26;21.90;99.90
14735;DHT22;7458;49.002;8.472;2023-06-22T05:55:52;22.20;99.90
14735;DHT22;7458;49.002;8.472;2023-06-22T05:58:18;22.50;99.90
14735;DHT22;7458;49.002;8.472;2023-06-22T06:00:44;22.60;99.90
14735;DHT22;7458;49.002;8.472;2023-06-22T06:03:10;23.00;99.90
14735;DHT22;7458;49.002;8.472;2023-06-22T06:05:37;23.00;99.90
14735;DHT22;7458;49.002;8.472;2023-06-22T06:08:05;23.30;99.90
14735;DHT22;7458;49.002;8.472;2023-06-22T06:10:32;23.30;99.90
14735;DHT22;7458;49.002;8.472;2023-06-22T06:12:59;23.60;99.90
14735;DHT22;7458;49.002;8.472;2023-06-22T06:15:27;23.90;99.90
14735;DHT22;7458;49.002;8.472;2023-06-22T06:17:53;22.40;99.90
14735;DHT22;7458;49.002;8.472;2023-06-22T06:20:22;24.50;99.90
14735;DHT22;7458;49.002;8.472;2023-06-22T06:22:49;24.70;99.90
14735;DHT22;7458;49.002;8.472;2023-06-22T06:25:16;24.90;99.90
14735;DHT22;7458;49.002;8.472;2023-06-22T06:27:43;25.00;99.90
14735;DHT22;7458;49.002;8.472;2023-06-22T06:30:10;25.40;99.90
14735;DHT22;7458;49.002;8.472;2023-06-22T06:32:37;26.10;99.90
14735;DHT22;7458;49.002;8.472;2023-06-22T06:35:09;26.20;99.90
14735;DHT22;7458;49.002;8.472;2023-06-22T06:37:38;26.90;99.90
14735;DHT22;7458;49.002;8.472;2023-06-22T06:40:09;27.00;99.90
14735;DHT22;7458;49.002;8.472;2023-06-22T06:42:40;27.60;99.90
14735;DHT22;7458;49.002;8.472;2023-06-22T06:45:15;27.80;99.90
14735;DHT22;7458;49.002;8.472;2023-06-22T06:47:43;28.30;99.90
14735;DHT22;7458;49.002;8.472;2023-06-22T06:50:10;28.10;99.90
14735;DHT22;7458;49.002;8.472;2023-06-22T06:52:36;28.80;99.90
14735;DHT22;7458;49.002;8.472;2023-06-22T06:55:02;29.50;99.90
14735;DHT22;7458;49.002;8.472;2023-06-22T06:57:30;30.20;99.90
14735;DHT22;7458;49.002;8.472;2023-06-22T06:59:56;31.50;99.90
14735;DHT22;7458;49.002;8.472;2023-06-22T07:02:23;32.90;98.70
14735;DHT22;7458;49.002;8.472;2023-06-22T07:04:49;33.70;92.70
14735;DHT22;7458;49.002;8.472;2023-06-22T07:07:15;34.30;90.90
14735;DHT22;7458;49.002;8.472;2023-06-22T07:09:42;33.60;81.40
14735;DHT22;7458;49.002;8.472;2023-06-22T07:12:08;34.70;84.80
14735;DHT22;7458;49.002;8.472;2023-06-22T07:14:34;35.10;82.00
14735;DHT22;7458;49.002;8.472;2023-06-22T07:16:59;35.30;75.40
14735;DHT22;7458;49.002;8.472;2023-06-22T07:19:26;35.50;70.30
14735;DHT22;7458;49.002;8.472;2023-06-22T07:21:54;35.50;68.50
14735;DHT22;7458;49.002;8.472;2023-06-22T07:24:21;35.80;71.50
14735;DHT22;7458;49.002;8.472;2023-06-22T07:26:48;35.90;65.10
14735;DHT22;7458;49.002;8.472;2023-06-22T07:29:22;35.60;65.00
14735;DHT22;7458;49.002;8.472;2023-06-22T07:31:48;35.60;64.50
14735;DHT22;7458;49.002;8.472;2023-06-22T07:34:17;36.10;63.80
14735;DHT22;7458;49.002;8.472;2023-06-22T07:36:43;35.70;61.60
14735;DHT22;7458;49.002;8.472;2023-06-22T07:39:09;36.00;62.70
14735;DHT22;7458;49.002;8.472;2023-06-22T07:41:35;36.30;63.90
14735;DHT22;7458;49.002;8.472;2023-06-22T07:44:02;35.90;58.50
14735;DHT22;7458;49.002;8.472;2023-06-22T07:46:29;36.80;57.80
14735;DHT22;7458;49.002;8.472;2023-06-22T07:48:56;36.70;57.10
14735;DHT22;7458;49.002;8.472;2023-06-22T07:51:23;36.40;57.00
14735;DHT22;7458;49.002;8.472;2023-06-22T07:53:49;36.10;57.80
14735;DHT22;7458;49.002;8.472;2023-06-22T07:56:15;36.90;59.20
14735;DHT22;7458;49.002;8.472;2023-06-22T07:58:45;36.10;56.00
14735;DHT22;7458;49.002;8.472;2023-06-22T08:01:12;36.20;56.60
14735;DHT22;7458;49.002;8.472;2023-06-22T08:03:39;35.70;57.50
14735;DHT22;7458;49.002;8.472;2023-06-22T08:06:05;35.40;57.50
14735;DHT22;7458;49.002;8.472;2023-06-22T08:08:34;35.60;56.70
14735;DHT22;7458;49.002;8.472;2023-06-22T08:11:00;35.10;58.60
14735;DHT22;7458;49.002;8.472;2023-06-22T08:13:26;34.80;59.00
14735;DHT22;7458;49.002;8.472;2023-06-22T08:15:52;34.50;61.60
14735;DHT22;7458;49.002;8.472;2023-06-22T08:18:17;34.30;60.60
14735;DHT22;7458;49.002;8.472;2023-06-22T08:20:43;33.70;62.60
14735;DHT22;7458;49.002;8.472;2023-06-22T08:23:18;32.90;62.20
14735;DHT22;7458;49.002;8.472;2023-06-22T08:25:45;32.60;65.40
14735;DHT22;7458;49.002;8.472;2023-06-22T08:28:11;33.30;73.80
14735;DHT22;7458;49.002;8.472;2023-06-22T08:30:38;32.90;65.60
14735;DHT22;7458;49.002;8.472;2023-06-22T08:33:04;32.30;66.30
14735;DHT22;7458;49.002;8.472;2023-06-22T08:35:33;31.60;68.50
14735;DHT22;7458;49.002;8.472;2023-06-22T08:37:59;32.60;81.90
14735;DHT22;7458;49.002;8.472;2023-06-22T08:40:25;30.70;71.80
14735;DHT22;7458;49.002;8.472;2023-06-22T08:42:51;30.70;72.60
14735;DHT22;7458;49.002;8.472;2023-06-22T08:45:17;31.10;74.00
14735;DHT22;7458;49.002;8.472;2023-06-22T08:47:43;30.90;71.70
14735;DHT22;7458;49.002;8.472;2023-06-22T08:50:09;30.80;74.40
14735;DHT22;7458;49.002;8.472;2023-06-22T08:52:38;30.90;74.40
14735;DHT22;7458;49.002;8.472;2023-06-22T08:55:07;30.80;75.50
14735;DHT22;7458;49.002;8.472;2023-06-22T08:57:34;30.20;86.80
14735;DHT22;7458;49.002;8.472;2023-06-22T09:00:03;30.40;77.40
14735;DHT22;7458;49.002;8.472;2023-06-22T09:02:33;30.70;80.00
14735;DHT22;7458;49.002;8.472;2023-06-22T09:04:59;30.50;79.20
14735;DHT22;7458;49.002;8.472;2023-06-22T09:07:25;30.60;81.20
14735;DHT22;7458;49.002;8.472;2023-06-22T09:09:51;30.60;79.00
14735;DHT22;7458;49.002;8.472;2023-06-22T09:12:18;30.70;79.80
14735;DHT22;7458;49.002;8.472;2023-06-22T09:14:46;30.80;79.40
14735;DHT22;7458;49.002;8.472;2023-06-22T09:17:13;31.00;80.00
14735;DHT22;7458;49.002;8.472;2023-06-22T09:19:39;31.00;77.40
14735;DHT22;7458;49.002;8.472;2023-06-22T09:22:05;30.90;77.40
14735;DHT22;7458;49.002;8.472;2023-06-22T09:24:33;31.20;77.40
14735;DHT22;7458;49.002;8.472;2023-06-22T09:26:59;31.60;75.40
14735;DHT22;7458;49.002;8.472;2023-06-22T09:29:25;31.80;76.90
14735;DHT22;7458;49.002;8.472;2023-06-22T09:31:51;31.90;74.20
14735;DHT22;7458;49.002;8.472;2023-06-22T09:34:19;32.00;76.10
14735;DHT22;7458;49.002;8.472;2023-06-22T09:36:48;32.00;76.40
14735;DHT22;7458;49.002;8.472;2023-06-22T09:39:14;32.00;73.90
14735;DHT22;7458;49.002;8.472;2023-06-22T09:41:40;32.30;75.90
14735;DHT22;7458;49.002;8.472;2023-06-22T09:44:06;32.10;75.80
14735;DHT22;7458;49.002;8.472;2023-06-22T09:46:31;31.80;74.80
14735;DHT22;7458;49.002;8.472;2023-06-22T09:48:57;31.60;75.40
14735;DHT22;7458;49.002;8.472;2023-06-22T09:51:23;31.70;75.40
14735;DHT22;7458;49.002;8.472;2023-06-22T09:53:52;31.90;74.70
14735;DHT22;7458;49.002;8.472;2023-06-22T09:56:21;31.90;75.90
14735;DHT22;7458;49.002;8.472;2023-06-22T09:58:47;31.50;74.60
14735;DHT22;7458;49.002;8.472;2023-06-22T10:01:15;30.40;76.20
14735;DHT22;7458;49.002;8.472;2023-06-22T10:03:41;31.50;76.70
14735;DHT22;7458;49.002;8.472;2023-06-22T10:06:08;31.30;77.70
14735;DHT22;7458;49.002;8.472;2023-06-22T10:08:34;31.30;77.20
14735;DHT22;7458;49.002;8.472;2023-06-22T10:11:01;31.50;79.00
14735;DHT22;7458;49.002;8.472;2023-06-22T10:13:26;31.60;77.20
14735;DHT22;7458;49.002;8.472;2023-06-22T10:15:52;31.40;78.70
14735;DHT22;7458;49.002;8.472;2023-06-22T10:18:18;31.40;77.80
14735;DHT22;7458;49.002;8.472;2023-06-22T10:20:47;31.40;77.60
14735;DHT22;7458;49.002;8.472;2023-06-22T10:23:16;31.50;79.90
14735;DHT22;7458;49.002;8.472;2023-06-22T10:25:42;31.50;78.00
14735;DHT22;7458;49.002;8.472;2023-06-22T10:28:08;31.60;87.70
14735;DHT22;7458;49.002;8.472;2023-06-22T10:30:34;31.50;77.80
14735;DHT22;7458;49.002;8.472;2023-06-22T10:33:00;31.50;76.70
14735;DHT22;7458;49.002;8.472;2023-06-22T10:35:25;31.60;76.00
14735;DHT22;7458;49.002;8.472;2023-06-22T10:37:52;31.70;76.10
14735;DHT22;7458;49.002;8.472;2023-06-22T10:40:19;31.60;75.20
14735;DHT22;7458;49.002;8.472;2023-06-22T10:42:45;31.50;77.30
14735;DHT22;7458;49.002;8.472;2023-06-22T10:45:11;31.40;76.50
14735;DHT22;7458;49.002;8.472;2023-06-22T10:47:37;31.50;76.50
14735;DHT22;7458;49.002;8.472;2023-06-22T10:50:04;31.40;77.20
14735;DHT22;7458;49.002;8.472;2023-06-22T10:52:30;31.50;78.90
14735;DHT22;7458;49.002;8.472;2023-06-22T10:54:57;31.20;78.50
14735;DHT22;7458;49.002;8.472;2023-06-22T10:57:23;31.30;79.00
14735;DHT22;7458;49.002;8.472;2023-06-22T10:59:48;31.20;79.80
14735;DHT22;7458;49.002;8.472;2023-06-22T11:02:14;31.30;78.20
14735;DHT22;7458;49.002;8.472;2023-06-22T11:04:40;31.50;79.10
14735;DHT22;7458;49.002;8.472;2023-06-22T11:07:06;31.60;77.40
14735;DHT22;7458;49.002;8.472;2023-06-22T11:09:32;31.90;75.30
14735;DHT22;7458;49.002;8.472;2023-06-22T11:11:57;32.00;75.50
14735;DHT22;7458;49.002;8.472;2023-06-22T11:14:24;32.10;74.80
14735;DHT22;7458;49.002;8.472;2023-06-22T11:16:51;31.90;74.50
14735;DHT22;7458;49.002;8.472;2023-06-22T11:19:18;31.60;74.60
14735;DHT22;7458;49.002;8.472;2023-06-22T11:21:44;31.50;75.50
14735;DHT22;7458;49.002;8.472;2023-06-22T11:24:10;31.40;75.90
14735;DHT22;7458;49.002;8.472;2023-06-22T11:26:36;31.50;76.70
14735;DHT22;7458;49.002;8.472;2023-06-22T11:29:02;31.70;75.80
14735;DHT22;7458;49.002;8.472;2023-06-22T11:31:32;31.80;74.90
14735;DHT22;7458;49.002;8.472;2023-06-22T11:33:58;31.70;77.00
14735;DHT22;7458;49.002;8.472;2023-06-22T11:36:26;31.80;76.00
14735;DHT22;7458;49.002;8.472;2023-06-22T11:38:58;32.10;74.90
14735;DHT22;7458;49.002;8.472;2023-06-22T11:41:24;32.10;76.50
14735;DHT22;7458;49.002;8.472;2023-06-22T11:43:50;32.10;76.50
14735;DHT22;7458;49.002;8.472;2023-06-22T11:46:15;32.00;76.40
14735;DHT22;7458;49.002;8.472;2023-06-22T11:48:41;31.80;77.40
14735;DHT22;7458;49.002;8.472;2023-06-22T11:51:07;31.70;77.10
14735;DHT22;7458;49.002;8.472;2023-06-22T11:53:34;31.60;79.10
14735;DHT22;7458;49.002;8.472;2023-06-22T11:56:00;31.50;78.80
14735;DHT22;7458;49.002;8.472;2023-06-22T11:58:27;31.40;78.20
14735;DHT22;7458;49.002;8.472;2023-06-22T12:00:53;31.40;79.00
14735;DHT22;7458;49.002;8.472;2023-06-22T12:03:20;31.50;79.40
14735;DHT22;7458;49.002;8.472;2023-06-22T12:05:46;31.50;79.10
14735;DHT22;7458;49.002;8.472;2023-06-22T12:08:13;31.80;78.50
14735;DHT22;7458;49.002;8.472;2023-06-22T12:10:39;32.20;78.00
14735;DHT22;7458;49.002;8.472;2023-06-22T12:13:05;32.50;75.10
14735;DHT22;7458;49.002;8.472;2023-06-22T12:15:31;32.60;76.90
14735;DHT22;7458;49.002;8.472;2023-06-22T12:17:56;33.10;85.30
14735;DHT22;7458;49.002;8.472;2023-06-22T12:20:22;32.90;75.80
14735;DHT22;7458;49.002;8.472;2023-06-22T12:22:48;32.90;75.60
14735;DHT22;7458;49.002;8.472;2023-06-22T12:25:16;32.80;75.40
14735;DHT22;7458;49.002;8.472;2023-06-22T12:27:42;33.10;76.00
14735;DHT22;7458;49.002;8.472;2023-06-22T12:30:08;33.10;74.60
14735;DHT22;7458;49.002;8.472;2023-06-22T12:32:34;33.00;74.00
14735;DHT22;7458;49.002;8.472;2023-06-22T12:35:00;32.70;74.90
14735;DHT22;7458;49.002;8.472;2023-06-22T12:37:26;32.90;74.30
14735;DHT22;7458;49.002;8.472;2023-06-22T12:39:54;32.90;73.40
14735;DHT22;7458;49.002;8.472;2023-06-22T12:42:20;32.70;74.80
14735;DHT22;7458;49.002;8.472;2023-06-22T12:44:46;32.70;73.70
14735;DHT22;7458;49.002;8.472;2023-06-22T12:47:12;32.90;74.60
14735;DHT22;7458;49.002;8.472;2023-06-22T12:49:38;32.90;74.90
14735;DHT22;7458;49.002;8.472;2023-06-22T12:52:09;32.90;74.20
14735;DHT22;7458;49.002;8.472;2023-06-22T12:54:36;32.80;73.50
14735;DHT22;7458;49.002;8.472;2023-06-22T12:57:02;32.90;73.80
14735;DHT22;7458;49.002;8.472;2023-06-22T12:59:28;33.00;73.60
14735;DHT22;7458;49.002;8.472;2023-06-22T13:01:54;33.10;74.40
14735;DHT22;7458;49.002;8.472;2023-06-22T13:04:20;33.10;74.00
14735;DHT22;7458;49.002;8.472;2023-06-22T13:06:55;32.80;82.50
14735;DHT22;7458;49.002;8.472;2023-06-22T13:09:47;33.00;73.50
14735;DHT22;7458;49.002;8.472;2023-06-22T13:12:16;33.10;74.10
14735;DHT22;7458;49.002;8.472;2023-06-22T13:14:42;32.90;81.30
14735;DHT22;7458;49.002;8.472;2023-06-22T13:17:09;33.10;73.30
14735;DHT22;7458;49.002;8.472;2023-06-22T13:19:34;33.10;72.80
14735;DHT22;7458;49.002;8.472;2023-06-22T13:22:00;33.00;72.80
14735;DHT22;7458;49.002;8.472;2023-06-22T13:24:27;33.00;72.80
14735;DHT22;7458;49.002;8.472;2023-06-22T13:26:53;33.10;74.10
14735;DHT22;7458;49.002;8.472;2023-06-22T13:29:20;33.00;71.60
14735;DHT22;7458;49.002;8.472;2023-06-22T13:31:46;32.70;72.70
14735;DHT22;7458;49.002;8.472;2023-06-22T13:34:12;32.90;74.10
14735;DHT22;7458;49.002;8.472;2023-06-22T13:36:38;32.90;73.30
14735;DHT22;7458;49.002;8.472;2023-06-22T13:39:03;32.90;74.10
14735;DHT22;7458;49.002;8.472;2023-06-22T13:41:29;32.80;74.00
14735;DHT22;7458;49.002;8.472;2023-06-22T13:43:55;32.90;75.40
14735;DHT22;7458;49.002;8.472;2023-06-22T13:46:21;32.80;74.90
14735;DHT22;7458;49.002;8.472;2023-06-22T13:48:46;32.80;74.00
14735;DHT22;7458;49.002;8.472;2023-06-22T13:51:12;32.80;74.60
14735;DHT22;7458;49.002;8.472;2023-06-22T13:53:38;32.70;74.40
14735;DHT22;7458;49.002;8.472;2023-06-22T13:56:04;32.80;74.50
14735;DHT22;7458;49.002;8.472;2023-06-22T13:58:29;33.80;75.30
14735;DHT22;7458;49.002;8.472;2023-06-22T14:00:55;33.00;74.70
14735;DHT22;7458;49.002;8.472;2023-06-22T14:03:21;33.10;73.80
14735;DHT22;7458;49.002;8.472;2023-06-22T14:05:46;33.00;73.80
14735;DHT22;7458;49.002;8.472;2023-06-22T14:08:13;32.70;84.30
14735;DHT22;7458;49.002;8.472;2023-06-22T14:10:40;32.60;74.70
14735;DHT22;7458;49.002;8.472;2023-06-22T14:13:06;32.40;74.70
14735;DHT22;7458;49.002;8.472;2023-06-22T14:15:32;32.30;75.50
14735;DHT22;7458;49.002;8.472;2023-06-22T14:17:58;32.20;86.10
14735;DHT22;7458;49.002;8.472;2023-06-22T14:20:23;31.90;75.80
14735;DHT22;7458;49.002;8.472;2023-06-22T14:22:49;31.80;74.90
14735;DHT22;7458;49.002;8.472;2023-06-22T14:25:15;31.70;74.90
14735;DHT22;7458;49.002;8.472;2023-06-22T14:27:40;31.50;74.50
14735;DHT22;7458;49.002;8.472;2023-06-22T14:30:06;31.60;85.60
14735;DHT22;7458;49.002;8.472;2023-06-22T14:32:32;31.40;75.10
14735;DHT22;7458;49.002;8.472;2023-06-22T14:34:58;31.50;75.40
14735;DHT22;7458;49.002;8.472;2023-06-22T14:37:24;31.50;75.20
14735;DHT22;7458;49.002;8.472;2023-06-22T14:39:50;31.50;74.90
14735;DHT22;7458;49.002;8.472;2023-06-22T14:42:15;31.60;74.90
14735;DHT22;7458;49.002;8.472;2023-06-22T14:44:41;31.70;74.40
14735;DHT22;7458;49.002;8.472;2023-06-22T14:47:07;31.80;73.90
14735;DHT22;7458;49.002;8.472;2023-06-22T14:49:33;31.90;73.70
14735;DHT22;7458;49.002;8.472;2023-06-22T14:51:58;32.00;73.00
14735;DHT22;7458;49.002;8.472;2023-06-22T14:54:24;32.10;72.40
14735;DHT22;7458;49.002;8.472;2023-06-22T14:56:50;32.20;72.60
14735;DHT22;7458;49.002;8.472;2023-06-22T14:59:16;32.20;72.50
14735;DHT22;7458;49.002;8.472;2023-06-22T15:01:42;32.10;72.00
14735;DHT22;7458;49.002;8.472;2023-06-22T15:04:07;32.00;71.90
14735;DHT22;7458;49.002;8.472;2023-06-22T15:06:33;32.00;71.90
14735;DHT22;7458;49.002;8.472;2023-06-22T15:08:59;32.00;71.60
14735;DHT22;7458;49.002;8.472;2023-06-22T15:11:25;31.90;71.20
14735;DHT22;7458;49.002;8.472;2023-06-22T15:13:50;31.80;71.10
14735;DHT22;7458;49.002;8.472;2023-06-22T15:16:16;31.80;71.60
14735;DHT22;7458;49.002;8.472;2023-06-22T15:18:42;31.70;72.30
14735;DHT22;7458;49.002;8.472;2023-06-22T15:21:08;31.80;72.90
14735;DHT22;7458;49.002;8.472;2023-06-22T15:23:34;31.90;73.20
14735;DHT22;7458;49.002;8.472;2023-06-22T15:26:01;32.10;73.40
14735;DHT22;7458;49.002;8.472;2023-06-22T15:28:30;32.10;71.70
14735;DHT22;7458;49.002;8.472;2023-06-22T15:30:57;32.10;71.00
14735;DHT22;7458;49.002;8.472;2023-06-22T15:33:24;32.10;70.60
14735;DHT22;7458;49.002;8.472;2023-06-22T15:35:50;32.10;69.60
14735;DHT22;7458;49.002;8.472;2023-06-22T15:38:18;32.10;69.90
14735;DHT22;7458;49.002;8.472;2023-06-22T15:40:43;32.10;69.80
14735;DHT22;7458;49.002;8.472;2023-06-22T15:43:12;32.20;69.90
14735;DHT22;7458;49.002;8.472;2023-06-22T15:45:39;32.30;70.80